Time;durP1;ratioP1;P1;durP2;ratioP2;P2;SDS_P1;SDS_P2;PMS_P1;PMS_P2;Temp;Humidity;BMP_temperature;BMP_pressure;BME280_temperature;BME280_humidity;BME280_pressure;Samples;Min_cycle;Max_cycle;Signal;HPM_P1;HPM_P2
2023/05/04 00:01:21;;;;;;;11.25;9.48;;;7.30;99.90;;;;;;4995297;28;20260;-84
2023/05/04 00:03:49;;;;;;;13.55;9.32;;;7.20;99.90;;;;;;5000906;28;20236;-85
2023/05/04 00:06:16;;;;;;;16.35;11.00;;;7.20;99.90;;;;;;5015953;28;20514;-84
2023/05/04 00:08:42;;;;;;;10.85;9.75;;;7.20;99.90;;;;;;5012192;28;20256;-83
2023/05/04 00:11:10;;;;;;;13.50;10.63;;;7.00;99.90;;;;;;5011858;28;20206;-82
2023/05/04 00:13:36;;;;;;;13.05;10.13;;;7.00;99.90;;;;;;5011951;28;20197;-82
2023/05/04 00:16:04;;;;;;;14.32;9.77;;;7.10;99.90;;;;;;5003856;28;20556;-83
2023/05/04 00:18:36;;;;;;;22.60;10.90;;;7.00;99.90;;;;;;5007026;28;20262;-82
2023/05/04 00:21:04;;;;;;;20.75;12.80;;;7.10;99.90;;;;;;4997301;28;20217;-81
2023/05/04 00:23:31;;;;;;;15.10;11.18;;;7.00;99.90;;;;;;5012375;28;20245;-85
2023/05/04 00:25:58;;;;;;;13.55;10.55;;;7.00;99.90;;;;;;4990625;28;20231;-84
2023/05/04 00:28:25;;;;;;;15.13;10.43;;;6.90;99.90;;;;;;5008412;28;20659;-83
2023/05/04 00:30:53;;;;;;;12.50;10.63;;;7.00;99.90;;;;;;5000494;28;20492;-83
2023/05/04 00:33:20;;;;;;;17.98;12.48;;;7.00;99.90;;;;;;5013370;28;20200;-85
2023/05/04 00:35:48;;;;;;;17.95;13.40;;;7.00;99.90;;;;;;5006156;28;20408;-83
2023/05/04 00:38:15;;;;;;;14.18;11.00;;;6.90;99.90;;;;;;5008354;28;20425;-84
2023/05/04 00:40:44;;;;;;;11.05;9.93;;;6.80;99.90;;;;;;5006544;28;20205;-83
2023/05/04 00:43:13;;;;;;;17.25;12.40;;;6.80;99.90;;;;;;5013798;28;20217;-83
2023/05/04 00:45:41;;;;;;;20.02;13.00;;;6.70;99.90;;;;;;5018378;28;20205;-84
2023/05/04 00:48:07;;;;;;;16.63;11.90;;;6.70;99.90;;;;;;4998828;28;20223;-82
2023/05/04 00:50:35;;;;;;;16.33;11.88;;;6.70;99.90;;;;;;4988732;28;20197;-82
2023/05/04 00:53:10;;;;;;;16.23;11.18;;;6.60;99.90;;;;;;5021524;28;20239;-84
2023/05/04 00:55:39;;;;;;;13.30;11.23;;;6.50;99.90;;;;;;5030219;28;20219;-85
2023/05/04 00:58:08;;;;;;;15.77;11.93;;;6.50;99.90;;;;;;5005939;28;20264;-84
2023/05/04 01:00:35;;;;;;;13.02;10.68;;;6.50;99.90;;;;;;5010061;28;20516;-89
2023/05/04 01:03:02;;;;;;;19.00;12.32;;;6.50;99.90;;;;;;5012102;28;20270;-85
2023/05/04 01:05:35;;;;;;;12.65;11.00;;;6.50;99.90;;;;;;4999970;28;20303;-89
2023/05/04 01:08:08;;;;;;;17.42;11.48;;;6.40;99.90;;;;;;5026641;28;20201;-88
2023/05/04 01:11:18;;;;;;;17.67;12.00;;;6.40;99.90;;;;;;5017390;28;20212;-86
2023/05/04 01:13:47;;;;;;;18.20;13.10;;;6.40;99.90;;;;;;5007960;28;20238;-85
2023/05/04 01:16:14;;;;;;;17.15;11.98;;;6.40;99.90;;;;;;5019713;28;20221;-84
2023/05/04 01:18:41;;;;;;;13.68;11.23;;;6.60;99.90;;;;;;5009269;28;20409;-83
2023/05/04 01:21:08;;;;;;;18.00;11.73;;;6.20;99.90;;;;;;5012139;28;20252;-83
2023/05/04 01:23:36;;;;;;;18.52;12.95;;;6.20;99.90;;;;;;5009101;28;20229;-83
2023/05/04 01:26:27;;;;;;;15.90;11.98;;;6.30;99.90;;;;;;5026851;28;20201;-83
2023/05/04 01:29:37;;;;;;;17.23;12.18;;;6.20;99.90;;;;;;5017227;28;20244;-81
2023/05/04 01:32:05;;;;;;;16.40;11.50;;;6.10;99.90;;;;;;4954109;28;20206;-85
2023/05/04 01:34:34;;;;;;;14.90;11.77;;;6.10;99.90;;;;;;4990420;28;20211;-84
2023/05/04 01:37:01;;;;;;;16.63;12.52;;;6.20;99.90;;;;;;5015732;28;20237;-83
2023/05/04 01:39:29;;;;;;;16.20;11.52;;;6.10;99.90;;;;;;4994203;28;20502;-84
2023/05/04 01:41:57;;;;;;;16.75;11.45;;;6.10;99.90;;;;;;5003330;28;20446;-87
2023/05/04 01:44:24;;;;;;;23.73;11.98;;;6.00;99.90;;;;;;4990204;28;20329;-84
2023/05/04 01:46:53;;;;;;;18.20;12.45;;;6.00;99.90;;;;;;5009547;28;20205;-83
2023/05/04 01:49:21;;;;;;;16.45;12.57;;;5.90;99.90;;;;;;5015774;28;20209;-84
2023/05/04 01:51:49;;;;;;;12.77;11.27;;;6.00;99.90;;;;;;5030424;28;20225;-83
2023/05/04 01:54:17;;;;;;;14.32;11.27;;;5.90;99.90;;;;;;5023376;28;20206;-81
2023/05/04 01:56:44;;;;;;;17.55;13.52;;;5.90;99.90;;;;;;5016023;28;20217;-84
2023/05/04 01:59:11;;;;;;;16.35;11.75;;;6.00;99.90;;;;;;5005760;28;20212;-86
2023/05/04 02:01:38;;;;;;;18.38;13.13;;;5.90;99.90;;;;;;5019325;28;20259;-85
2023/05/04 02:04:05;;;;;;;15.65;11.27;;;5.90;99.90;;;;;;5015325;28;20215;-86
2023/05/04 02:06:32;;;;;;;22.13;12.95;;;5.90;99.90;;;;;;5011368;28;20212;-85
2023/05/04 02:09:00;;;;;;;19.63;13.23;;;5.90;99.90;;;;;;4992792;28;20209;-84
2023/05/04 02:11:26;;;;;;;14.02;12.48;;;5.90;99.90;;;;;;5004537;28;20201;-85
2023/05/04 02:13:53;;;;;;;23.88;13.85;;;5.90;99.90;;;;;;5010500;28;20210;-84
2023/05/04 02:16:20;;;;;;;20.02;14.02;;;5.90;99.90;;;;;;5003813;28;20237;-83
2023/05/04 02:18:49;;;;;;;18.90;13.82;;;5.80;99.90;;;;;;5004332;28;20204;-84
2023/05/04 02:21:20;;;;;;;19.88;13.65;;;5.80;99.90;;;;;;5012441;28;20216;-82
2023/05/04 02:23:46;;;;;;;20.08;14.57;;;5.80;99.90;;;;;;5004261;28;20218;-84
2023/05/04 02:26:16;;;;;;;15.80;12.25;;;5.80;99.90;;;;;;5001874;28;20209;-84
2023/05/04 02:28:44;;;;;;;17.17;13.30;;;5.80;99.90;;;;;;5010254;28;20280;-85
2023/05/04 02:31:10;;;;;;;19.50;13.77;;;5.70;99.90;;;;;;4992667;28;20210;-85
2023/05/04 02:33:38;;;;;;;23.42;15.00;;;5.80;99.90;;;;;;5013851;28;20229;-84
2023/05/04 02:36:06;;;;;;;18.02;13.18;;;5.80;99.90;;;;;;5010272;28;20209;-85
2023/05/04 02:38:34;;;;;;;20.25;15.45;;;5.80;99.90;;;;;;5004377;28;20205;-86
2023/05/04 02:41:01;;;;;;;22.17;15.43;;;5.70;99.90;;;;;;5002518;28;20217;-84
2023/05/04 02:43:28;;;;;;;21.60;16.20;;;5.70;99.90;;;;;;5027230;28;20208;-82
2023/05/04 02:45:55;;;;;;;21.83;14.52;;;5.80;99.90;;;;;;5007918;28;20213;-83
2023/05/04 02:48:23;;;;;;;21.52;15.02;;;5.70;99.90;;;;;;4992244;28;20217;-82
2023/05/04 02:50:55;;;;;;;18.95;14.85;;;5.70;99.90;;;;;;5004634;28;20747;-85
2023/05/04 02:53:23;;;;;;;24.02;16.85;;;5.60;99.90;;;;;;5012382;28;20207;-83
2023/05/04 02:55:50;;;;;;;17.80;15.90;;;5.60;99.90;;;;;;4980028;28;20252;-84
2023/05/04 02:58:18;;;;;;;25.35;16.92;;;5.80;99.90;;;;;;4973343;28;20244;-85
2023/05/04 03:00:45;;;;;;;32.90;17.45;;;5.60;99.90;;;;;;5007932;28;20279;-84
2023/05/04 03:03:13;;;;;;;24.73;17.42;;;5.60;99.90;;;;;;5009269;28;20276;-82
2023/05/04 03:05:40;;;;;;;26.20;16.40;;;5.60;99.90;;;;;;5014153;28;20232;-85
2023/05/04 03:08:07;;;;;;;21.13;17.23;;;5.60;99.90;;;;;;5007221;28;20202;-86
2023/05/04 03:10:35;;;;;;;17.15;15.40;;;5.60;99.90;;;;;;4990311;28;20482;-83
2023/05/04 03:13:04;;;;;;;22.55;18.75;;;5.60;99.90;;;;;;5005095;28;20205;-84
2023/05/04 03:15:32;;;;;;;20.63;17.10;;;5.50;99.90;;;;;;4993097;28;20251;-85
2023/05/04 03:18:00;;;;;;;23.77;17.52;;;5.50;99.90;;;;;;5008772;28;20228;-83
2023/05/04 03:20:27;;;;;;;26.35;17.33;;;5.50;99.90;;;;;;5013944;28;20277;-84
2023/05/04 03:22:54;;;;;;;21.20;16.85;;;5.50;99.90;;;;;;5001256;28;20210;-85
2023/05/04 03:25:21;;;;;;;25.52;17.83;;;5.50;99.90;;;;;;4980724;28;20246;-82
2023/05/04 03:27:48;;;;;;;20.70;17.35;;;5.50;99.90;;;;;;5001166;28;20256;-81
2023/05/04 03:30:17;;;;;;;20.38;16.88;;;5.50;99.90;;;;;;5007336;28;20652;-83
2023/05/04 03:32:44;;;;;;;22.88;17.17;;;5.50;99.90;;;;;;5004622;28;20197;-84
2023/05/04 03:35:13;;;;;;;22.90;16.50;;;5.50;99.90;;;;;;5002829;28;20217;-85
2023/05/04 03:37:39;;;;;;;29.75;19.55;;;5.50;99.90;;;;;;5011840;28;20233;-84
2023/05/04 03:40:08;;;;;;;26.48;19.52;;;5.50;99.90;;;;;;5001948;28;20198;-87
2023/05/04 03:42:36;;;;;;;28.00;21.67;;;5.50;99.90;;;;;;4997622;28;20205;-85
2023/05/04 03:45:06;;;;;;;28.35;18.13;;;5.50;99.90;;;;;;4980031;28;20264;-84
2023/05/04 03:47:35;;;;;;;25.40;18.75;;;5.60;99.90;;;;;;4980686;28;20212;-84
2023/05/04 03:50:01;;;;;;;24.90;18.27;;;5.60;99.90;;;;;;5013744;28;20268;-84
2023/05/04 03:52:29;;;;;;;23.10;18.13;;;5.70;99.90;;;;;;5007356;28;20494;-84
2023/05/04 03:54:59;;;;;;;30.63;18.23;;;5.80;99.90;;;;;;5000649;28;20205;-85
2023/05/04 03:57:26;;;;;;;25.33;17.45;;;5.90;99.90;;;;;;5000824;28;20233;-84
2023/05/04 03:59:53;;;;;;;26.55;18.90;;;5.90;99.90;;;;;;5001981;28;20506;-85
2023/05/04 04:02:23;;;;;;;27.00;16.70;;;6.00;99.90;;;;;;4994906;28;20277;-84
2023/05/04 04:04:50;;;;;;;28.50;18.63;;;6.10;99.90;;;;;;5009732;28;20249;-84
2023/05/04 04:07:17;;;;;;;27.48;18.92;;;6.20;99.90;;;;;;5008232;28;20217;-85
2023/05/04 04:09:45;;;;;;;23.63;17.40;;;6.30;99.90;;;;;;5015051;28;20197;-86
2023/05/04 04:12:12;;;;;;;28.05;18.30;;;6.40;99.90;;;;;;5008537;28;20216;-85
2023/05/04 04:14:39;;;;;;;31.05;16.80;;;6.40;99.90;;;;;;5001396;28;20205;-85
2023/05/04 04:17:07;;;;;;;27.73;17.52;;;6.50;99.90;;;;;;5004103;28;20233;-86
2023/05/04 04:19:33;;;;;;;37.40;19.20;;;6.70;99.90;;;;;;5002139;28;20209;-85
2023/05/04 04:22:00;;;;;;;26.10;17.83;;;6.80;99.90;;;;;;5012442;28;20217;-86
2023/05/04 04:24:31;;;;;;;27.63;18.65;;;7.10;99.90;;;;;;5011521;28;20213;-85
2023/05/04 04:26:58;;;;;;;29.00;17.00;;;7.20;99.90;;;;;;5013604;28;20571;-87
2023/05/04 04:29:26;;;;;;;24.10;18.65;;;7.40;99.90;;;;;;5008639;28;20201;-87
2023/05/04 04:31:54;;;;;;;22.77;16.63;;;7.40;99.90;;;;;;5008282;28;20261;-87
2023/05/04 04:34:23;;;;;;;26.55;16.88;;;7.50;99.90;;;;;;5002136;28;20201;-86
2023/05/04 04:36:51;;;;;;;19.08;15.15;;;7.70;99.90;;;;;;5005705;28;20396;-88
2023/05/04 04:39:17;;;;;;;22.70;17.15;;;7.70;99.90;;;;;;4997548;28;20214;-88
2023/05/04 04:41:44;;;;;;;35.72;17.88;;;7.80;99.90;;;;;;5005750;28;20201;-88
2023/05/04 04:44:11;;;;;;;30.20;17.10;;;8.10;99.90;;;;;;4986786;28;20206;-87
2023/05/04 04:46:38;;;;;;;22.38;14.50;;;8.10;99.90;;;;;;5011942;28;20206;-86
2023/05/04 04:49:06;;;;;;;21.95;14.82;;;8.30;99.90;;;;;;5006603;28;20214;-86
2023/05/04 04:51:34;;;;;;;20.05;15.73;;;8.50;99.90;;;;;;5006809;28;20202;-88
2023/05/04 04:54:01;;;;;;;20.45;14.65;;;8.50;99.90;;;;;;5001511;28;20513;-86
2023/05/04 04:56:29;;;;;;;20.73;14.45;;;8.60;99.90;;;;;;4998845;28;20210;-87
2023/05/04 04:59:00;;;;;;;22.40;15.05;;;8.80;99.90;;;;;;5013227;28;20235;-87
2023/05/04 05:01:28;;;;;;;28.80;15.73;;;8.90;99.90;;;;;;5015193;28;20217;-87
2023/05/04 05:03:55;;;;;;;22.90;14.63;;;9.00;99.90;;;;;;5008131;28;20630;-87
2023/05/04 05:06:22;;;;;;;23.50;15.32;;;9.20;99.90;;;;;;5006479;28;20212;-86
2023/05/04 05:08:50;;;;;;;23.45;14.57;;;9.40;99.90;;;;;;5009619;28;20212;-86
2023/05/04 05:11:17;;;;;;;30.17;16.70;;;9.50;99.90;;;;;;5013456;28;20446;-87
2023/05/04 05:13:44;;;;;;;36.90;17.60;;;9.60;99.90;;;;;;5014320;28;20188;-87
2023/05/04 05:16:11;;;;;;;21.83;13.80;;;9.50;99.90;;;;;;5002907;28;20195;-86
2023/05/04 05:18:44;;;;;;;24.30;12.43;;;9.60;99.90;;;;;;5010356;28;20227;-88
2023/05/04 05:21:13;;;;;;;20.55;16.08;;;9.90;99.90;;;;;;5002230;28;20290;-87
2023/05/04 05:23:45;;;;;;;22.45;13.85;;;9.90;99.90;;;;;;4966317;28;20219;-87
2023/05/04 05:26:13;;;;;;;16.67;11.55;;;10.00;99.90;;;;;;4999486;28;20214;-87
2023/05/04 05:28:41;;;;;;;18.77;11.98;;;10.10;99.90;;;;;;4991859;28;20212;-87
2023/05/04 05:31:08;;;;;;;14.68;11.48;;;10.20;99.90;;;;;;4992639;28;20200;-84
2023/05/04 05:33:37;;;;;;;13.65;9.60;;;10.10;99.90;;;;;;5007693;28;20292;-82
2023/05/04 05:36:04;;;;;;;14.30;8.07;;;10.10;99.90;;;;;;5006499;28;20521;-84
2023/05/04 05:38:33;;;;;;;9.15;6.85;;;10.50;99.90;;;;;;4996449;28;20259;-84
2023/05/04 05:41:00;;;;;;;9.70;7.47;;;10.90;99.90;;;;;;5003750;28;20212;-83
2023/05/04 05:43:32;;;;;;;12.45;8.07;;;11.00;99.90;;;;;;5015617;28;20204;-85
2023/05/04 05:45:59;;;;;;;13.07;8.52;;;11.20;99.90;;;;;;5014209;28;20198;-85
2023/05/04 05:48:26;;;;;;;11.50;8.07;;;11.10;99.90;;;;;;5008651;28;20220;-88
2023/05/04 05:50:53;;;;;;;9.05;7.28;;;11.30;99.90;;;;;;5006018;28;20209;-83
2023/05/04 05:53:20;;;;;;;10.77;7.18;;;11.50;99.90;;;;;;4993668;28;20209;-84
2023/05/04 05:55:46;;;;;;;12.50;7.28;;;11.60;99.90;;;;;;5002593;28;20708;-86
2023/05/04 05:58:13;;;;;;;12.60;7.03;;;12.00;99.90;;;;;;5014547;28;20241;-85
2023/05/04 06:00:40;;;;;;;13.02;7.03;;;12.10;99.90;;;;;;5010321;28;20202;-85
2023/05/04 06:03:07;;;;;;;7.82;6.80;;;12.10;99.90;;;;;;4984691;28;20233;-84
2023/05/04 06:05:34;;;;;;;8.30;6.13;;;12.40;99.90;;;;;;4988959;28;20205;-82
2023/05/04 06:08:01;;;;;;;6.82;5.40;;;12.40;99.90;;;;;;5002085;28;20209;-85
2023/05/04 06:10:28;;;;;;;11.73;6.72;;;12.60;99.90;;;;;;5001820;28;20206;-85
2023/05/04 06:12:56;;;;;;;9.93;7.47;;;12.70;99.90;;;;;;5001365;28;20502;-81
2023/05/04 06:15:23;;;;;;;7.15;5.95;;;12.80;99.90;;;;;;4995402;28;20212;-82
2023/05/04 06:17:50;;;;;;;11.32;6.32;;;13.00;99.90;;;;;;5016472;28;20245;-83
2023/05/04 06:20:17;;;;;;;8.07;6.30;;;13.20;99.90;;;;;;5001399;28;20261;-84
2023/05/04 06:22:43;;;;;;;8.93;6.95;;;13.30;99.90;;;;;;5008333;28;20198;-82
2023/05/04 06:25:11;;;;;;;8.18;6.75;;;13.30;99.90;;;;;;5012093;28;20206;-84
2023/05/04 06:27:38;;;;;;;7.88;5.65;;;13.60;99.90;;;;;;5012736;28;20205;-84
2023/05/04 06:30:06;;;;;;;10.00;5.23;;;14.00;99.90;;;;;;5003927;28;20210;-84
2023/05/04 06:32:34;;;;;;;6.60;5.90;;;14.30;99.90;;;;;;4994333;28;20440;-82
2023/05/04 06:35:01;;;;;;;10.43;6.77;;;14.70;99.90;;;;;;5015223;28;20417;-82
2023/05/04 06:37:28;;;;;;;8.17;6.07;;;14.90;99.90;;;;;;5007584;28;20454;-83
2023/05/04 06:39:55;;;;;;;8.30;6.67;;;15.10;99.90;;;;;;4988473;28;20426;-83
2023/05/04 06:42:24;;;;;;;10.83;5.20;;;15.30;99.90;;;;;;5016208;28;20422;-84
2023/05/04 06:44:51;;;;;;;6.30;5.70;;;15.40;99.90;;;;;;5017385;28;20444;-87
2023/05/04 06:47:18;;;;;;;10.70;6.10;;;15.60;99.90;;;;;;5009861;28;20422;-84
2023/05/04 06:49:45;;;;;;;8.97;5.83;;;15.70;99.90;;;;;;4984889;28;20752;-84
2023/05/04 06:52:13;;;;;;;6.80;5.37;;;16.10;99.90;;;;;;5012562;28;20448;-83
2023/05/04 06:54:53;;;;;;;9.23;6.20;;;16.20;99.90;;;;;;4996416;28;20458;-83
2023/05/04 06:57:22;;;;;;;6.37;5.20;;;16.90;99.90;;;;;;5001616;28;20439;-86
2023/05/04 06:59:51;;;;;;;5.67;5.07;;;17.50;99.90;;;;;;5001815;28;20461;-85
2023/05/04 07:02:18;;;;;;;6.17;5.53;;;18.10;98.80;;;;;;5014618;28;20425;-84
2023/05/04 07:04:46;;;;;;;9.30;5.50;;;18.90;95.20;;;;;;5005639;28;20446;-82
2023/05/04 07:07:14;;;;;;;8.37;5.30;;;19.60;92.80;;;;;;5002929;28;20421;-84
2023/05/04 07:09:42;;;;;;;6.80;6.10;;;20.00;90.20;;;;;;5000292;28;20591;-83
2023/05/04 07:12:13;;;;;;;6.60;5.13;;;20.00;91.40;;;;;;5004582;28;20501;-82
2023/05/04 07:14:40;;;;;;;6.07;5.47;;;19.90;87.20;;;;;;5001298;28;20812;-86
2023/05/04 07:17:09;;;;;;;8.33;5.90;;;20.40;84.30;;;;;;5008742;28;20575;-82
2023/05/04 07:19:37;;;;;;;10.03;5.50;;;21.30;78.90;;;;;;5004422;28;20554;-85
2023/05/04 07:22:04;;;;;;;8.17;4.80;;;22.30;71.20;;;;;;5000234;28;20783;-82
2023/05/04 07:24:31;;;;;;;8.83;4.30;;;22.90;66.20;;;;;;5007070;28;20456;-88
2023/05/04 07:26:58;;;;;;;5.60;4.50;;;23.40;58.50;;;;;;4999847;28;20447;-86
2023/05/04 07:29:25;;;;;;;6.40;5.00;;;24.00;56.30;;;;;;5011164;28;20794;-83
2023/05/04 07:31:54;;;;;;;7.20;4.57;;;24.80;55.10;;;;;;5005659;28;20450;-84
2023/05/04 07:34:21;;;;;;;7.60;4.93;;;26.80;50.60;;;;;;5006032;28;20448;-84
2023/05/04 07:37:04;;;;;;;6.13;5.50;;;29.20;46.60;;;;;;4996626;28;20770;-84
2023/05/04 07:39:34;;;;;;;6.67;4.97;;;29.80;43.00;;;;;;5002960;28;21074;-84
2023/05/04 07:42:04;;;;;;;7.00;5.10;;;29.00;44.10;;;;;;5006942;28;20451;-87
2023/05/04 07:44:34;;;;;;;5.10;4.70;;;29.40;41.40;;;;;;5009127;28;20458;-84
2023/05/04 07:47:01;;;;;;;5.17;4.60;;;29.20;41.10;;;;;;5005061;28;20548;-86
2023/05/04 07:49:28;;;;;;;6.50;5.30;;;26.40;42.80;;;;;;5009593;28;20452;-83
2023/05/04 07:51:55;;;;;;;7.83;5.27;;;27.40;42.70;;;;;;4998018;28;20443;-84
2023/05/04 07:54:24;;;;;;;5.37;4.60;;;28.50;42.50;;;;;;5002210;28;20467;-86
2023/05/04 07:56:52;;;;;;;4.60;3.60;;;29.10;41.20;;;;;;5013407;28;21064;-83
2023/05/04 07:59:22;;;;;;;4.50;4.10;;;28.90;40.50;;;;;;5006859;28;20531;-83
2023/05/04 08:01:50;;;;;;;3.70;3.33;;;29.50;39.60;;;;;;5006066;28;20495;-83
2023/05/04 08:04:17;;;;;;;7.23;3.63;;;29.30;38.80;;;;;;5002171;28;20523;-85
2023/05/04 08:06:49;;;;;;;3.67;3.33;;;28.30;38.60;;;;;;4995996;28;20747;-87
2023/05/04 08:09:17;;;;;;;4.93;3.53;;;27.90;39.10;;;;;;5004137;28;20447;-86
2023/05/04 08:11:45;;;;;;;4.73;3.63;;;27.20;41.00;;;;;;5002466;28;20510;-85
2023/05/04 08:14:13;;;;;;;6.47;4.10;;;27.40;40.10;;;;;;5000369;28;20448;-84
2023/05/04 08:16:40;;;;;;;3.80;3.60;;;29.00;39.40;;;;;;5001824;28;20462;-87
2023/05/04 08:19:08;;;;;;;4.43;3.20;;;30.00;38.30;;;;;;5000185;28;20530;-85
2023/05/04 08:21:35;;;;;;;3.27;2.80;;;30.70;36.40;;;;;;5001437;28;20442;-82
2023/05/04 08:24:03;;;;;;;5.20;3.70;;;30.60;35.90;;;;;;5004048;28;20453;-82
2023/05/04 08:26:30;;;;;;;4.30;3.00;;;29.60;36.60;;;;;;4998012;28;20442;-85
2023/05/04 08:29:15;;;;;;;3.30;2.90;;;29.40;36.30;;;;;;5019057;28;20466;-85
2023/05/04 08:31:42;;;;;;;5.63;3.93;;;28.80;38.10;;;;;;5001098;28;20451;-83
2023/05/04 08:34:09;;;;;;;4.03;3.73;;;25.10;41.80;;;;;;5007694;28;21012;-83
2023/05/04 08:36:35;;;;;;;3.63;3.30;;;24.50;42.90;;;;;;4999555;28;20514;-82
2023/05/04 08:39:02;;;;;;;3.23;2.93;;;24.50;43.80;;;;;;5006462;28;20782;-81
2023/05/04 08:41:29;;;;;;;5.03;3.10;;;27.00;41.10;;;;;;5003159;28;20518;-81
2023/05/04 08:43:59;;;;;;;3.90;3.40;;;29.50;38.00;;;;;;5006420;28;20495;-83
2023/05/04 08:46:29;;;;;;;3.30;3.00;;;31.30;35.70;;;;;;5002308;28;20505;-82
2023/05/04 08:48:57;;;;;;;8.90;3.87;;;29.20;37.20;;;;;;4994794;28;20459;-82
2023/05/04 08:51:25;;;;;;;3.47;2.80;;;27.50;38.30;;;;;;4985092;28;20919;-82
2023/05/04 08:53:53;;;;;;;3.40;3.10;;;27.00;39.00;;;;;;5000986;28;20499;-84
2023/05/04 08:56:21;;;;;;;3.70;3.40;;;28.30;38.90;;;;;;4977827;28;20507;-83
2023/05/04 08:58:50;;;;;;;4.50;3.60;;;28.60;38.40;;;;;;4992940;28;20538;-80
2023/05/04 09:01:18;;;;;;;6.43;3.70;;;27.00;39.50;;;;;;4985733;28;20495;-83
2023/05/04 09:03:46;;;;;;;3.23;2.80;;;27.70;38.80;;;;;;5010097;28;20494;-81
2023/05/04 09:06:13;;;;;;;3.47;3.17;;;27.00;39.70;;;;;;5010282;28;20779;-82
2023/05/04 09:08:41;;;;;;;3.00;2.80;;;28.40;38.70;;;;;;4989602;28;20451;-81
2023/05/04 09:11:09;;;;;;;4.93;3.00;;;29.30;37.70;;;;;;5018513;28;20452;-83
2023/05/04 09:13:35;;;;;;;5.93;3.50;;;30.90;37.10;;;;;;5009513;28;20485;-85
2023/05/04 09:16:02;;;;;;;4.20;3.23;;;29.30;37.80;;;;;;5018785;28;20479;-83
2023/05/04 09:18:47;;;;;;;3.70;3.23;;;29.40;37.10;;;;;;5025672;28;20475;-81
2023/05/04 09:21:15;;;;;;;3.93;3.53;;;28.40;37.50;;;;;;5018131;28;20672;-82
2023/05/04 09:23:50;;;;;;;4.00;3.33;;;27.00;39.60;;;;;;5019889;28;20469;-83
2023/05/04 09:26:31;;;;;;;4.60;4.10;;;27.60;40.20;;;;;;5007894;28;20819;-81
2023/05/04 09:29:14;;;;;;;4.63;4.10;;;26.00;41.90;;;;;;4991773;28;20498;-85
2023/05/04 09:31:49;;;;;;;5.00;4.03;;;23.30;44.90;;;;;;5013890;28;20427;-84
2023/05/04 09:34:20;;;;;;;3.70;2.80;;;21.80;48.90;;;;;;5013230;28;20473;-82
2023/05/04 09:37:01;;;;;;;6.13;3.40;;;20.80;49.40;;;;;;4993330;28;20435;-82
2023/05/04 09:39:29;;;;;;;4.43;3.50;;;20.30;50.60;;;;;;5008307;28;20468;-82
2023/05/04 09:41:56;;;;;;;6.40;3.20;;;20.00;51.30;;;;;;5015725;28;20426;-83
2023/05/04 09:44:24;;;;;;;3.77;2.43;;;19.80;52.50;;;;;;5017526;28;20442;-84
2023/05/04 09:46:58;;;;;;;3.77;3.47;;;19.60;53.10;;;;;;5006967;28;20547;-82
2023/05/04 09:49:43;;;;;;;3.17;2.87;;;19.40;53.30;;;;;;5015943;28;20615;-83
2023/05/04 09:52:11;;;;;;;3.23;2.93;;;19.00;55.40;;;;;;5015195;28;20482;-83
2023/05/04 09:54:42;;;;;;;4.93;4.23;;;18.30;55.00;;;;;;5000336;28;20469;-82
2023/05/04 09:57:14;;;;;;;5.67;3.37;;;18.00;56.70;;;;;;5011022;28;20401;-83
2023/05/04 09:59:43;;;;;;;3.90;3.50;;;17.90;58.10;;;;;;5019815;28;20498;-81
2023/05/04 10:02:13;;;;;;;3.87;3.33;;;17.70;59.70;;;;;;5035553;28;20441;-83
2023/05/04 10:04:51;;;;;;;4.23;3.77;;;17.70;60.20;;;;;;5019713;28;20443;-81
2023/05/04 10:07:22;;;;;;;4.50;3.07;;;17.80;59.40;;;;;;5020248;28;20439;-82
2023/05/04 10:09:50;;;;;;;7.20;4.33;;;17.60;61.10;;;;;;5024234;28;20439;-84
2023/05/04 10:12:17;;;;;;;4.60;3.87;;;17.50;62.40;;;;;;5013442;28;20434;-81
2023/05/04 10:14:46;;;;;;;7.60;3.50;;;17.50;65.40;;;;;;5026765;28;20413;-85
2023/05/04 10:17:16;;;;;;;4.27;3.03;;;17.70;67.30;;;;;;5000309;28;20456;-82
2023/05/04 10:20:04;;;;;;;3.93;3.10;;;18.00;70.40;;;;;;5027278;28;20455;-85
2023/05/04 10:22:33;;;;;;;7.10;3.83;;;18.20;67.40;;;;;;5011964;28;20402;-84
2023/05/04 10:25:33;;;;;;;7.53;3.60;;;18.30;65.80;;;;;;5017343;28;20454;-84
2023/05/04 10:28:50;;;;;;;3.73;3.43;;;18.30;64.50;;;;;;5013150;28;20440;-81
2023/05/04 10:31:17;;;;;;;5.03;3.10;;;18.20;66.10;;;;;;4974077;28;20453;-84
2023/05/04 10:33:52;;;;;;;6.60;3.33;;;18.20;64.70;;;;;;5013388;28;20504;-82
2023/05/04 10:36:19;;;;;;;3.20;2.90;;;17.70;65.80;;;;;;5002399;28;20859;-80
2023/05/04 10:38:46;;;;;;;4.70;3.40;;;17.60;66.60;;;;;;5006191;28;20450;-83
2023/05/04 10:41:15;;;;;;;3.37;3.07;;;17.90;67.50;;;;;;5002135;28;20493;-80
2023/05/04 10:43:47;;;;;;;3.60;2.87;;;17.90;65.50;;;;;;5007467;28;20427;-84
2023/05/04 10:46:18;;;;;;;4.20;2.70;;;18.20;69.40;;;;;;5013646;28;20787;-84
2023/05/04 10:48:46;;;;;;;3.27;2.50;;;18.20;64.80;;;;;;5004811;28;20449;-86
2023/05/04 10:51:23;;;;;;;3.60;2.47;;;17.90;67.40;;;;;;5011868;28;20772;-84
2023/05/04 10:54:01;;;;;;;8.67;3.93;;;18.00;68.80;;;;;;5001495;28;20415;-85
2023/05/04 10:56:31;;;;;;;3.43;3.13;;;17.60;66.40;;;;;;5005480;28;20439;-82
2023/05/04 10:59:07;;;;;;;3.67;3.30;;;17.40;68.30;;;;;;5004994;28;20487;-82
2023/05/04 11:01:44;;;;;;;4.43;3.20;;;17.40;70.70;;;;;;5016629;28;20438;-85
2023/05/04 11:04:19;;;;;;;5.80;3.10;;;17.60;71.00;;;;;;5003409;28;20448;-81
2023/05/04 11:06:56;;;;;;;3.17;2.73;;;17.60;69.80;;;;;;5001879;28;20753;-86
2023/05/04 11:09:23;;;;;;;2.77;2.10;;;17.40;65.40;;;;;;5004581;28;20444;-83
2023/05/04 11:11:52;;;;;;;2.60;2.40;;;17.40;66.50;;;;;;5002887;28;20475;-84
2023/05/04 11:14:27;;;;;;;4.10;2.80;;;17.50;66.50;;;;;;5002809;28;20419;-84
2023/05/04 11:17:07;;;;;;;3.00;2.80;;;17.60;68.70;;;;;;5004620;28;20530;-84
2023/05/04 11:19:53;;;;;;;5.90;3.00;;;17.50;67.80;;;;;;5002736;28;20504;-84
2023/05/04 11:22:24;;;;;;;3.67;2.50;;;17.70;70.20;;;;;;5007829;28;20452;-84
2023/05/04 11:24:51;;;;;;;3.40;2.50;;;17.90;66.50;;;;;;5002969;28;20548;-81
2023/05/04 11:27:22;;;;;;;3.07;2.73;;;17.90;66.50;;;;;;4990838;28;20483;-81
2023/05/04 11:30:08;;;;;;;3.00;2.80;;;18.00;65.90;;;;;;5021656;28;20484;-84
2023/05/04 11:32:45;;;;;;;4.13;3.73;;;18.10;65.50;;;;;;5020206;28;20444;-86
2023/05/04 11:35:18;;;;;;;3.00;2.53;;;18.40;68.00;;;;;;5009034;28;20509;-83
2023/05/04 11:37:46;;;;;;;4.80;3.57;;;18.50;67.30;;;;;;4980815;28;20606;-84
2023/05/04 11:40:18;;;;;;;2.20;1.97;;;18.40;62.60;;;;;;5002757;28;20480;-86
2023/05/04 11:42:46;;;;;;;1.97;1.87;;;18.10;65.40;;;;;;5002104;28;20488;-85
2023/05/04 11:45:29;;;;;;;5.37;2.97;;;18.10;65.00;;;;;;4982832;28;20472;-82
2023/05/04 11:47:58;;;;;;;3.40;2.97;;;18.00;65.70;;;;;;5007576;28;20634;-86
2023/05/04 11:50:26;;;;;;;3.37;2.80;;;17.90;65.80;;;;;;5005471;28;20486;-83
2023/05/04 11:53:12;;;;;;;6.10;2.57;;;17.70;66.10;;;;;;4994135;28;20439;-83
2023/05/04 11:55:41;;;;;;;4.20;2.70;;;17.70;68.30;;;;;;5001045;28;20459;-81
2023/05/04 11:58:11;;;;;;;7.97;2.50;;;17.80;68.30;;;;;;4983414;28;20414;-81
2023/05/04 12:00:45;;;;;;;6.40;3.90;;;17.80;69.20;;;;;;5006840;28;20548;-82
2023/05/04 12:03:22;;;;;;;3.73;2.70;;;17.90;69.50;;;;;;5002065;28;20454;-85
2023/05/04 12:05:56;;;;;;;4.17;3.20;;;17.90;70.10;;;;;;5013344;28;20966;-83
2023/05/04 12:08:28;;;;;;;6.50;3.10;;;18.10;68.60;;;;;;5009495;28;20414;-82
2023/05/04 12:11:24;;;;;;;4.10;3.70;;;17.80;69.50;;;;;;5015453;28;20413;-83
2023/05/04 12:14:15;;;;;;;4.57;2.97;;;17.50;70.70;;;;;;5000641;28;20567;-81
2023/05/04 12:16:56;;;;;;;4.20;3.33;;;17.50;71.40;;;;;;4994209;28;20463;-84
2023/05/04 12:19:24;;;;;;;6.40;2.30;;;17.30;71.00;;;;;;4993555;28;20473;-83
2023/05/04 12:21:53;;;;;;;3.37;3.07;;;17.30;72.00;;;;;;5002670;28;20501;-83
2023/05/04 12:24:23;;;;;;;2.77;2.57;;;17.40;71.80;;;;;;4983238;28;21039;-84
2023/05/04 12:26:51;;;;;;;4.60;2.80;;;17.60;72.50;;;;;;4962491;28;20444;-82
2023/05/04 12:29:19;;;;;;;3.50;2.50;;;17.50;72.50;;;;;;5011668;28;20423;-85
2023/05/04 12:31:46;;;;;;;3.83;2.70;;;17.60;73.10;;;;;;4983179;28;20475;-85
2023/05/04 12:34:13;;;;;;;4.77;2.77;;;17.50;71.90;;;;;;4992247;28;20481;-83
2023/05/04 12:36:40;;;;;;;2.00;1.90;;;17.50;72.50;;;;;;5013829;28;20406;-86
2023/05/04 12:39:08;;;;;;;5.10;2.30;;;17.70;72.10;;;;;;5019457;28;20532;-81
2023/05/04 12:41:36;;;;;;;2.87;2.63;;;17.90;72.50;;;;;;5015566;28;20910;-81
2023/05/04 12:44:03;;;;;;;5.10;2.90;;;18.00;73.50;;;;;;5011401;28;20769;-83
2023/05/04 12:46:29;;;;;;;2.60;2.33;;;18.00;71.60;;;;;;5015840;28;20444;-85
2023/05/04 12:48:56;;;;;;;4.60;2.80;;;18.10;71.70;;;;;;5013547;28;20429;-84
2023/05/04 12:51:24;;;;;;;3.30;2.83;;;18.20;70.80;;;;;;5009922;28;20484;-85
2023/05/04 12:53:54;;;;;;;4.30;2.73;;;18.00;69.70;;;;;;5007021;28;20453;-82
2023/05/04 12:56:22;;;;;;;2.97;2.67;;;17.80;70.20;;;;;;5005644;28;20437;-83